createdAt,value
2023-02-15T00:01:34.972Z,43.78
2023-02-15T00:04:01.925Z,43.69
2023-02-15T00:06:28.918Z,43.68
2023-02-15T00:08:55.814Z,43.71
2023-02-15T00:11:40.751Z,43.77
2023-02-15T00:14:16.244Z,43.82
2023-02-15T00:16:43.991Z,43.77
2023-02-15T00:19:11.323Z,43.58
2023-02-15T00:21:38.754Z,43.63
2023-02-15T00:24:06.377Z,43.53
2023-02-15T00:26:33.424Z,43.83
2023-02-15T00:29:00.428Z,43.67
2023-02-15T00:31:32.019Z,43.82
2023-02-15T00:34:21.797Z,43.69
2023-02-15T00:36:48.514Z,43.89
2023-02-15T00:39:15.545Z,43.72
2023-02-15T00:41:42.580Z,43.94
2023-02-15T00:44:09.430Z,43.81
2023-02-15T00:46:36.432Z,43.89
2023-02-15T00:49:03.447Z,43.54
2023-02-15T00:51:30.319Z,43.76
2023-02-15T00:53:57.041Z,43.70
2023-02-15T00:56:23.834Z,43.66
2023-02-15T00:58:50.738Z,43.57
2023-02-15T01:01:18.975Z,43.79
2023-02-15T01:03:47.615Z,43.75
2023-02-15T01:06:15.470Z,43.80
2023-02-15T01:08:42.380Z,43.59
2023-02-15T01:11:11.038Z,43.73
2023-02-15T01:13:38.074Z,43.67
2023-02-15T01:16:05.599Z,43.70
2023-02-15T01:18:32.592Z,43.72
2023-02-15T01:20:59.497Z,43.79
2023-02-15T01:23:26.377Z,43.70
2023-02-15T01:25:53.205Z,43.80
2023-02-15T01:28:20.054Z,43.68
2023-02-15T01:30:47.017Z,43.80
2023-02-15T01:33:19.104Z,43.65
2023-02-15T01:35:47.620Z,43.81
2023-02-15T01:38:14.972Z,43.94
2023-02-15T01:40:41.967Z,44.14
2023-02-15T01:43:11.480Z,43.97
2023-02-15T01:45:38.371Z,44.14
2023-02-15T01:48:25.249Z,44.04
2023-02-15T01:50:57.750Z,44.20
2023-02-15T01:53:35.585Z,44.34
2023-02-15T01:56:05.802Z,44.26
2023-02-15T01:58:32.550Z,44.17
2023-02-15T02:01:01.355Z,44.27
2023-02-15T02:03:40.439Z,44.24
2023-02-15T02:06:07.296Z,44.29
2023-02-15T02:08:34.037Z,44.33
2023-02-15T02:11:00.921Z,44.20
2023-02-15T02:13:27.860Z,44.32
2023-02-15T02:16:24.699Z,44.27
2023-02-15T02:19:06.844Z,44.21
2023-02-15T02:22:10.925Z,44.40
2023-02-15T02:24:52.936Z,44.26
2023-02-15T02:27:27.634Z,44.43
2023-02-15T02:30:28.563Z,44.54
2023-02-15T02:33:40.783Z,44.38
2023-02-15T02:36:24.785Z,44.53
2023-02-15T02:39:09.775Z,44.41
2023-02-15T02:41:51.334Z,44.32
2023-02-15T02:44:44.947Z,44.52
2023-02-15T02:47:16.777Z,44.14
2023-02-15T02:49:43.916Z,44.34
2023-02-15T02:52:35.636Z,44.23
2023-02-15T02:55:04.500Z,44.19
2023-02-15T02:57:31.341Z,44.27
2023-02-15T02:59:58.163Z,44.40
2023-02-15T03:02:27.616Z,43.99
2023-02-15T03:04:59.422Z,44.29
2023-02-15T03:07:26.254Z,44.06
2023-02-15T03:09:53.331Z,44.24
2023-02-15T03:12:37.734Z,44.33
2023-02-15T03:15:12.496Z,44.24
2023-02-15T03:17:42.422Z,44.31
2023-02-15T03:20:15.651Z,44.44
2023-02-15T03:22:49.158Z,44.56
2023-02-15T03:25:32.735Z,44.63
2023-02-15T03:28:10.946Z,44.58
2023-02-15T03:30:37.925Z,44.36
2023-02-15T03:33:04.833Z,44.61
2023-02-15T03:35:46.270Z,44.79
2023-02-15T03:38:13.949Z,44.82
2023-02-15T03:41:01.823Z,44.83
2023-02-15T03:43:52.443Z,44.96
2023-02-15T03:46:33.575Z,45.10
2023-02-15T03:49:07.264Z,45.20
2023-02-15T03:51:36.165Z,45.35
2023-02-15T03:54:38.495Z,45.34
2023-02-15T03:57:24.336Z,45.39
2023-02-15T04:00:09.742Z,45.55
2023-02-15T04:02:40.996Z,45.45
2023-02-15T04:05:10.767Z,45.39
2023-02-15T04:07:37.582Z,45.37
2023-02-15T04:10:23.078Z,45.48
2023-02-15T04:12:49.913Z,45.37
2023-02-15T04:15:35.227Z,45.38
2023-02-15T04:18:04.326Z,45.24
2023-02-15T04:20:49.789Z,45.29
2023-02-15T04:23:34.939Z,45.36
2023-02-15T04:26:05.526Z,45.42
2023-02-15T04:28:32.490Z,45.34
2023-02-15T04:30:59.319Z,45.37
2023-02-15T04:33:26.178Z,45.33
2023-02-15T04:35:52.988Z,45.40
2023-02-15T04:38:19.742Z,45.55
2023-02-15T04:40:51.069Z,45.52
2023-02-15T04:43:17.833Z,45.51
2023-02-15T04:45:50.260Z,45.57
2023-02-15T04:48:17.734Z,45.79
2023-02-15T04:50:45.158Z,45.88
2023-02-15T04:53:12.065Z,45.89
2023-02-15T04:55:38.997Z,45.80
2023-02-15T04:58:05.744Z,45.81
2023-02-15T05:00:32.455Z,45.99
2023-02-15T05:02:59.594Z,45.97
2023-02-15T05:05:26.436Z,45.94
2023-02-15T05:07:53.264Z,45.98
2023-02-15T05:10:20.284Z,45.99
2023-02-15T05:12:47.215Z,46.05
2023-02-15T05:15:13.952Z,46.07
2023-02-15T05:17:40.924Z,46.11
2023-02-15T05:20:08.255Z,46.05
2023-02-15T05:22:35.072Z,46.19
2023-02-15T05:25:20.449Z,46.25
2023-02-15T05:28:10.136Z,46.17
2023-02-15T05:30:37.392Z,46.38
2023-02-15T05:33:04.297Z,46.36
2023-02-15T05:35:31.013Z,46.39
2023-02-15T05:37:57.862Z,46.44
2023-02-15T05:40:24.598Z,46.38
2023-02-15T05:42:51.471Z,46.60
2023-02-15T05:45:18.289Z,46.70
2023-02-15T05:47:45.055Z,46.83
2023-02-15T05:50:12.417Z,46.69
2023-02-15T05:52:39.257Z,46.80
2023-02-15T05:55:06.495Z,46.80
2023-02-15T05:57:33.345Z,46.91
2023-02-15T06:00:00.268Z,46.87
2023-02-15T06:02:27.188Z,46.96
2023-02-15T06:04:54.015Z,46.98
2023-02-15T06:07:20.921Z,47.25
2023-02-15T06:09:47.658Z,47.00
2023-02-15T06:12:14.470Z,47.09
2023-02-15T06:14:41.409Z,47.30
2023-02-15T06:17:08.164Z,47.32
2023-02-15T06:19:34.914Z,47.45
2023-02-15T06:22:01.716Z,47.43
2023-02-15T06:24:28.529Z,47.53
2023-02-15T06:26:55.326Z,47.40
2023-02-15T06:29:22.220Z,47.52
2023-02-15T06:31:49.010Z,47.53
2023-02-15T06:34:15.940Z,47.26
2023-02-15T06:36:42.821Z,47.51
2023-02-15T06:39:09.621Z,47.63
2023-02-15T06:41:36.358Z,47.54
2023-02-15T06:44:03.335Z,47.68
2023-02-15T06:46:30.107Z,47.49
2023-02-15T06:48:56.906Z,47.49
2023-02-15T06:51:23.868Z,47.31
2023-02-15T06:53:50.661Z,47.33
2023-02-15T06:56:17.450Z,47.18
2023-02-15T06:58:44.392Z,47.29
2023-02-15T07:01:11.691Z,47.27
2023-02-15T07:03:38.488Z,47.14
2023-02-15T07:06:07.439Z,47.17
2023-02-15T07:08:34.380Z,47.24
2023-02-15T07:11:21.429Z,47.24
2023-02-15T07:13:48.416Z,47.21
2023-02-15T07:16:15.320Z,47.12
2023-02-15T07:18:42.211Z,47.34
2023-02-15T07:21:09.073Z,47.91
2023-02-15T07:23:39.432Z,47.52
2023-02-15T07:26:06.823Z,47.44
2023-02-15T07:28:34.642Z,47.36
2023-02-15T07:31:05.252Z,47.32
2023-02-15T07:33:33.163Z,47.18
2023-02-15T07:36:03.380Z,47.12
2023-02-15T07:38:35.176Z,46.88
2023-02-15T07:41:03.026Z,47.03
2023-02-15T07:43:30.545Z,46.90
2023-02-15T07:46:08.658Z,46.92
2023-02-15T07:48:36.087Z,46.91
2023-02-15T07:51:03.861Z,46.79
2023-02-15T07:53:31.068Z,47.02
2023-02-15T07:56:02.143Z,46.87
2023-02-15T07:58:47.650Z,46.90
2023-02-15T08:01:15.382Z,46.86
2023-02-15T08:03:42.340Z,46.78
2023-02-15T08:06:09.236Z,46.70
2023-02-15T08:08:36.547Z,46.76
2023-02-15T08:11:48.720Z,46.61
2023-02-15T08:14:20.002Z,46.33
2023-02-15T08:16:48.946Z,46.12
2023-02-15T08:19:25.884Z,45.96
2023-02-15T08:21:54.792Z,46.06
2023-02-15T08:24:22.526Z,45.80
2023-02-15T08:26:49.644Z,45.34
2023-02-15T08:29:17.232Z,45.36
2023-02-15T08:31:44.166Z,45.22
2023-02-15T08:34:12.643Z,44.72
2023-02-15T08:36:39.617Z,44.87
2023-02-15T08:39:06.968Z,44.79
2023-02-15T08:41:38.960Z,44.80
2023-02-15T08:44:07.965Z,44.93
2023-02-15T08:46:36.582Z,44.35
2023-02-15T08:49:03.495Z,44.11
2023-02-15T08:51:32.075Z,44.04
2023-02-15T08:54:00.590Z,43.92
2023-02-15T08:56:33.227Z,43.04
2023-02-15T08:59:00.041Z,43.58
2023-02-15T09:01:31.756Z,43.27
2023-02-15T09:04:00.537Z,43.07
2023-02-15T09:06:27.926Z,43.06
2023-02-15T09:08:54.996Z,41.85
2023-02-15T09:11:24.082Z,42.08
2023-02-15T09:13:52.557Z,41.91
2023-02-15T09:16:19.362Z,40.37
2023-02-15T09:18:46.441Z,40.48
2023-02-15T09:21:14.829Z,39.51
2023-02-15T09:23:42.606Z,39.95
2023-02-15T09:26:13.853Z,39.85
2023-02-15T09:28:40.779Z,39.07
2023-02-15T09:31:14.859Z,38.89
2023-02-15T09:33:42.482Z,38.98
2023-02-15T09:36:20.227Z,38.99
2023-02-15T09:38:47.401Z,39.15
2023-02-15T09:41:34.389Z,38.67
2023-02-15T09:44:17.830Z,38.66
2023-02-15T09:47:17.420Z,37.33
2023-02-15T09:49:53.082Z,37.12
2023-02-15T09:52:38.337Z,36.99
2023-02-15T09:55:17.006Z,37.59
2023-02-15T09:57:46.787Z,36.44
2023-02-15T10:00:25.717Z,36.26
2023-02-15T10:02:55.691Z,36.53
2023-02-15T10:05:48.800Z,37.20
2023-02-15T10:08:24.731Z,35.33
2023-02-15T10:11:24.139Z,34.54
2023-02-15T10:14:17.179Z,34.72
2023-02-15T10:16:51.168Z,35.10
2023-02-15T10:19:43.124Z,35.31
2023-02-15T10:22:19.693Z,34.49
2023-02-15T10:24:49.481Z,35.34
2023-02-15T10:27:22.362Z,35.22
2023-02-15T10:29:50.188Z,35.59
2023-02-15T10:32:17.090Z,35.39
2023-02-15T10:34:46.766Z,36.08
2023-02-15T10:37:27.430Z,35.36
2023-02-15T10:40:00.114Z,34.67
2023-02-15T10:42:45.169Z,33.52
2023-02-15T10:45:41.315Z,33.97
2023-02-15T10:48:38.798Z,33.16
2023-02-15T10:51:07.460Z,33.28
2023-02-15T10:54:02.142Z,33.15
2023-02-15T10:56:41.037Z,32.77
2023-02-15T10:59:20.634Z,32.06
2023-02-15T11:02:02.293Z,32.44
2023-02-15T11:04:38.521Z,32.58
2023-02-15T11:07:24.322Z,31.98
2023-02-15T11:10:18.781Z,31.79
2023-02-15T11:12:45.810Z,31.97
2023-02-15T11:15:16.401Z,31.70
2023-02-15T11:17:45.784Z,31.66
2023-02-15T11:20:31.274Z,32.38
2023-02-15T11:22:58.388Z,33.07
2023-02-15T11:25:26.745Z,32.77
2023-02-15T11:27:53.562Z,31.66
2023-02-15T11:30:53.186Z,30.14
2023-02-15T11:33:26.212Z,30.26
2023-02-15T11:35:57.388Z,30.86
2023-02-15T11:38:30.063Z,30.36
2023-02-15T11:41:21.489Z,30.45
2023-02-15T11:43:53.482Z,29.75
2023-02-15T11:46:22.140Z,29.48
2023-02-15T11:48:48.913Z,27.24
2023-02-15T11:51:17.816Z,26.21
2023-02-15T11:53:44.989Z,26.96
2023-02-15T11:56:31.952Z,27.55
2023-02-15T11:59:05.115Z,26.51
2023-02-15T12:01:34.077Z,25.91
2023-02-15T12:04:07.745Z,26.57
2023-02-15T12:06:39.813Z,25.95
2023-02-15T12:09:28.344Z,26.83
2023-02-15T12:11:55.173Z,26.77
2023-02-15T12:14:22.138Z,26.65
2023-02-15T12:16:53.178Z,26.06
2023-02-15T12:19:53.765Z,26.50
2023-02-15T12:22:30.753Z,26.44
2023-02-15T12:25:01.395Z,26.21
2023-02-15T12:27:32.308Z,26.77
2023-02-15T12:30:07.202Z,26.69
2023-02-15T12:32:47.868Z,26.38
2023-02-15T12:35:16.052Z,25.45
2023-02-15T12:37:56.497Z,25.11
2023-02-15T12:40:28.793Z,25.04
2023-02-15T12:42:57.148Z,25.13
2023-02-15T12:45:31.805Z,24.31
2023-02-15T12:48:14.112Z,23.90
2023-02-15T12:50:42.352Z,24.07
2023-02-15T12:53:35.558Z,23.81
2023-02-15T12:56:04.034Z,24.09
2023-02-15T12:58:34.938Z,23.12
2023-02-15T13:01:13.275Z,23.25
2023-02-15T13:03:52.616Z,22.63
2023-02-15T13:06:19.781Z,22.78
2023-02-15T13:08:48.863Z,22.38
2023-02-15T13:11:21.514Z,22.06
2023-02-15T13:13:55.961Z,20.86
2023-02-15T13:16:36.241Z,20.19
2023-02-15T13:19:16.685Z,20.35
2023-02-15T13:21:46.230Z,20.77
2023-02-15T13:24:27.206Z,20.72
2023-02-15T13:27:03.408Z,20.46
2023-02-15T13:29:37.253Z,20.93
2023-02-15T13:32:11.983Z,21.71
2023-02-15T13:34:39.810Z,21.63
2023-02-15T13:37:15.056Z,21.30
2023-02-15T13:39:41.907Z,21.35
2023-02-15T13:42:22.342Z,21.36
2023-02-15T13:45:10.822Z,21.98
2023-02-15T13:47:56.147Z,22.39
2023-02-15T13:50:38.492Z,23.13
2023-02-15T13:53:08.104Z,23.52
2023-02-15T13:56:07.734Z,23.79
2023-02-15T13:58:42.849Z,24.39
2023-02-15T14:01:30.019Z,24.62
2023-02-15T14:04:15.147Z,25.34
2023-02-15T14:06:53.816Z,25.81
2023-02-15T14:09:38.678Z,26.14
2023-02-15T14:12:27.272Z,26.55
2023-02-15T14:15:26.227Z,27.03
2023-02-15T14:18:22.163Z,27.41
2023-02-15T14:21:04.683Z,27.46
2023-02-15T14:23:43.753Z,28.07
2023-02-15T14:26:24.565Z,28.06
2023-02-15T14:29:23.725Z,28.41
2023-02-15T14:31:53.413Z,28.71
2023-02-15T14:34:30.482Z,28.82
2023-02-15T14:36:57.324Z,28.73
2023-02-15T14:39:51.319Z,29.04
2023-02-15T14:42:20.288Z,29.02
2023-02-15T14:44:51.902Z,29.23
2023-02-15T14:47:35.538Z,29.17
2023-02-15T14:50:32.104Z,29.27
2023-02-15T14:53:28.724Z,29.41
2023-02-15T14:56:14.797Z,29.32
2023-02-15T14:59:23.795Z,29.51
2023-02-15T15:02:04.893Z,31.11
2023-02-15T15:04:37.683Z,31.47
2023-02-15T15:07:10.556Z,32.11
2023-02-15T15:09:39.398Z,32.33
2023-02-15T15:12:25.045Z,32.67
2023-02-15T15:14:53.410Z,33.09
2023-02-15T15:17:32.393Z,34.01
2023-02-15T15:19:59.930Z,34.12
2023-02-15T15:22:28.136Z,34.62
2023-02-15T15:25:04.055Z,35.13
2023-02-15T15:27:54.360Z,35.72
2023-02-15T15:30:24.359Z,36.13
2023-02-15T15:32:57.793Z,36.91
2023-02-15T15:35:38.658Z,37.13
2023-02-15T15:38:14.407Z,37.55
2023-02-15T15:40:50.210Z,37.70
2023-02-15T15:43:58.702Z,37.46
2023-02-15T15:46:32.578Z,37.63
2023-02-15T15:49:10.245Z,37.50
2023-02-15T15:51:38.700Z,37.31
2023-02-15T15:54:06.149Z,37.26
2023-02-15T15:56:36.416Z,37.36
2023-02-15T15:59:06.172Z,37.31
2023-02-15T16:01:39.479Z,37.11
2023-02-15T16:04:06.608Z,36.73
2023-02-15T16:06:38.108Z,37.22
2023-02-15T16:09:18.858Z,37.25
2023-02-15T16:11:48.040Z,37.28
2023-02-15T16:14:27.782Z,37.39
2023-02-15T16:16:57.133Z,37.35
2023-02-15T16:19:44.208Z,37.73
2023-02-15T16:22:14.044Z,37.53
2023-02-15T16:24:55.974Z,37.55
2023-02-15T16:27:36.167Z,37.82
2023-02-15T16:30:36.293Z,37.75
2023-02-15T16:33:10.044Z,37.73
2023-02-15T16:35:38.600Z,37.52
2023-02-15T16:38:05.529Z,37.64
2023-02-15T16:40:58.529Z,37.82
2023-02-15T16:43:27.525Z,37.98
2023-02-15T16:45:58.025Z,37.66
2023-02-15T16:48:25.387Z,37.81
2023-02-15T16:50:54.670Z,37.79
2023-02-15T16:53:26.289Z,38.19
2023-02-15T16:55:55.683Z,38.09
2023-02-15T16:58:31.687Z,37.88
2023-02-15T17:00:59.941Z,37.71
2023-02-15T17:03:27.067Z,37.55
2023-02-15T17:06:00.914Z,37.58
2023-02-15T17:08:31.941Z,37.81
2023-02-15T17:11:15.592Z,37.67
2023-02-15T17:14:04.867Z,37.64
2023-02-15T17:16:35.692Z,38.03
2023-02-15T17:19:03.305Z,37.80
2023-02-15T17:21:34.179Z,37.99
2023-02-15T17:24:02.166Z,37.99
2023-02-15T17:26:34.092Z,37.93
2023-02-15T17:29:03.340Z,37.89
2023-02-15T17:31:33.677Z,38.26
2023-02-15T17:34:01.423Z,38.14
2023-02-15T17:36:30.628Z,38.26
2023-02-15T17:39:01.695Z,38.31
2023-02-15T17:41:35.787Z,38.97
2023-02-15T17:44:03.922Z,38.82
2023-02-15T17:46:35.615Z,39.12
2023-02-15T17:49:02.632Z,39.17
2023-02-15T17:51:29.451Z,39.39
2023-02-15T17:54:14.970Z,39.51
2023-02-15T17:56:41.776Z,39.60
2023-02-15T17:59:09.634Z,39.90
2023-02-15T18:01:55.006Z,39.99
2023-02-15T18:04:40.476Z,40.18
2023-02-15T18:07:28.487Z,40.30
2023-02-15T18:10:13.623Z,40.27
2023-02-15T18:12:41.093Z,40.41
2023-02-15T18:15:10.903Z,40.79
2023-02-15T18:17:41.146Z,40.95
2023-02-15T18:20:17.130Z,41.31
2023-02-15T18:22:44.693Z,41.15
2023-02-15T18:25:15.209Z,41.73
2023-02-15T18:27:41.939Z,41.61
2023-02-15T18:30:09.729Z,41.91
2023-02-15T18:32:36.710Z,41.79
2023-02-15T18:35:03.680Z,42.63
2023-02-15T18:37:31.984Z,42.78
2023-02-15T18:39:58.761Z,42.75
2023-02-15T18:42:27.670Z,43.28
2023-02-15T18:44:59.506Z,43.17
2023-02-15T18:47:26.567Z,43.30
2023-02-15T18:49:53.625Z,43.45
2023-02-15T18:52:25.232Z,44.21
2023-02-15T18:54:53.701Z,44.08
2023-02-15T18:57:20.561Z,44.21
2023-02-15T18:59:47.504Z,44.04
2023-02-15T19:02:15.685Z,44.66
2023-02-15T19:04:42.529Z,44.48
2023-02-15T19:07:26.423Z,44.84
2023-02-15T19:09:55.275Z,45.01
2023-02-15T19:12:22.163Z,45.02
2023-02-15T19:14:48.968Z,45.33
2023-02-15T19:17:17.859Z,45.65
2023-02-15T19:19:45.400Z,45.71
2023-02-15T19:22:17.321Z,45.59
2023-02-15T19:24:44.880Z,45.75
2023-02-15T19:27:32.965Z,46.00
2023-02-15T19:29:59.998Z,46.17
2023-02-15T19:32:27.944Z,46.16
2023-02-15T19:34:54.839Z,46.35
2023-02-15T19:37:35.404Z,46.52
2023-02-15T19:40:05.269Z,46.36
2023-02-15T19:42:33.356Z,46.58
2023-02-15T19:45:00.348Z,46.83
2023-02-15T19:47:28.411Z,46.64
2023-02-15T19:50:00.426Z,46.91
2023-02-15T19:52:27.262Z,47.00
2023-02-15T19:54:54.835Z,47.06
2023-02-15T19:57:21.910Z,47.26
2023-02-15T19:59:48.791Z,47.06
2023-02-15T20:02:18.348Z,47.32
2023-02-15T20:04:45.131Z,47.23
2023-02-15T20:07:25.245Z,47.64
2023-02-15T20:09:52.064Z,47.39
2023-02-15T20:12:21.842Z,47.70
2023-02-15T20:14:48.484Z,47.43
2023-02-15T20:17:15.224Z,47.31
2023-02-15T20:19:42.015Z,47.29
2023-02-15T20:22:25.939Z,47.74
2023-02-15T20:24:52.843Z,47.85
2023-02-15T20:27:19.872Z,47.81
2023-02-15T20:29:46.836Z,47.65
2023-02-15T20:32:13.730Z,47.85
2023-02-15T20:34:40.588Z,47.69
2023-02-15T20:37:15.024Z,48.03
2023-02-15T20:39:41.835Z,48.17
2023-02-15T20:42:11.875Z,48.04
2023-02-15T20:44:39.621Z,48.16
2023-02-15T20:47:06.362Z,48.40
2023-02-15T20:49:33.325Z,48.38
2023-02-15T20:52:00.163Z,48.36
2023-02-15T20:54:29.099Z,48.45
2023-02-15T20:56:55.900Z,48.46
2023-02-15T20:59:32.647Z,48.38
2023-02-15T21:02:16.052Z,48.68
2023-02-15T21:04:43.065Z,48.56
2023-02-15T21:07:17.882Z,48.86
2023-02-15T21:09:45.560Z,48.72
2023-02-15T21:12:16.735Z,48.85
2023-02-15T21:14:44.986Z,48.65
2023-02-15T21:17:15.524Z,48.79
2023-02-15T21:19:42.597Z,48.89
2023-02-15T21:22:12.346Z,48.84
2023-02-15T21:24:39.388Z,48.78
2023-02-15T21:27:06.852Z,48.83
2023-02-15T21:29:33.694Z,48.65
2023-02-15T21:32:02.712Z,48.84
2023-02-15T21:34:29.537Z,48.75
2023-02-15T21:36:56.627Z,48.93
2023-02-15T21:39:27.653Z,49.08
2023-02-15T21:42:13.351Z,48.76
2023-02-15T21:44:59.025Z,48.97
2023-02-15T21:47:48.900Z,48.93
2023-02-15T21:50:36.814Z,48.75
2023-02-15T21:53:04.465Z,48.54
2023-02-15T21:55:32.942Z,48.87
2023-02-15T21:58:00.528Z,48.55
2023-02-15T22:00:27.821Z,48.89
2023-02-15T22:02:56.181Z,48.90
2023-02-15T22:05:25.757Z,49.08
2023-02-15T22:07:52.558Z,48.84
2023-02-15T22:10:22.336Z,48.86
2023-02-15T22:12:49.549Z,49.04
2023-02-15T22:15:21.071Z,49.32
2023-02-15T22:17:48.444Z,49.20
2023-02-15T22:20:19.403Z,49.34
2023-02-15T22:22:49.457Z,49.28
2023-02-15T22:25:19.265Z,49.51
2023-02-15T22:27:46.119Z,48.99
2023-02-15T22:30:30.511Z,49.18
2023-02-15T22:32:57.659Z,49.21
2023-02-15T22:35:32.276Z,49.25
2023-02-15T22:37:59.148Z,48.97
2023-02-15T22:40:33.402Z,49.21
2023-02-15T22:43:01.603Z,49.12
2023-02-15T22:45:28.546Z,49.14
2023-02-15T22:47:59.902Z,49.18
2023-02-15T22:50:31.521Z,49.19
2023-02-15T22:53:02.043Z,49.26
2023-02-15T22:55:33.054Z,49.23
2023-02-15T22:57:59.774Z,48.98
2023-02-15T23:00:28.925Z,49.19
2023-02-15T23:02:55.925Z,49.27
2023-02-15T23:05:23.689Z,49.37
2023-02-15T23:07:50.565Z,49.13
2023-02-15T23:10:21.692Z,49.13
2023-02-15T23:13:10.981Z,49.40
2023-02-15T23:15:38.098Z,49.37
2023-02-15T23:18:29.279Z,49.27
2023-02-15T23:21:00.949Z,49.36
2023-02-15T23:23:31.637Z,49.04
2023-02-15T23:25:58.645Z,49.00
2023-02-15T23:28:30.535Z,49.13
2023-02-15T23:30:58.803Z,49.15
2023-02-15T23:33:30.247Z,49.26
2023-02-15T23:35:57.193Z,49.20
2023-02-15T23:38:26.260Z,49.18
2023-02-15T23:41:13.327Z,49.54
2023-02-15T23:43:40.720Z,49.43
2023-02-15T23:46:08.237Z,49.53
2023-02-15T23:48:37.166Z,49.74
2023-02-15T23:51:05.496Z,49.80
2023-02-15T23:53:32.579Z,49.73
2023-02-15T23:55:59.576Z,49.79
2023-02-15T23:58:34.208Z,49.89
